sensor_id;sensor_type;location;lat;lon;timestamp;P1;durP1;ratioP1;P2;durP2;ratioP2
49502;SDS011;35409;48.776;9.204;2022-08-19T00:00:20;16.90;;;15.10;;
49502;SDS011;35409;48.776;9.204;2022-08-19T00:02:46;16.95;;;14.50;;
49502;SDS011;35409;48.776;9.204;2022-08-19T00:05:13;17.83;;;15.55;;
49502;SDS011;35409;48.776;9.204;2022-08-19T00:07:40;15.13;;;13.63;;
49502;SDS011;35409;48.776;9.204;2022-08-19T00:10:11;17.08;;;14.77;;
49502;SDS011;35409;48.776;9.204;2022-08-19T00:12:39;17.38;;;15.18;;
49502;SDS011;35409;48.776;9.204;2022-08-19T00:15:06;16.17;;;14.52;;
49502;SDS011;35409;48.776;9.204;2022-08-19T00:17:36;16.73;;;14.77;;
49502;SDS011;35409;48.776;9.204;2022-08-19T00:20:03;18.50;;;15.27;;
49502;SDS011;35409;48.776;9.204;2022-08-19T00:22:30;15.95;;;14.25;;
49502;SDS011;35409;48.776;9.204;2022-08-19T00:24:56;19.73;;;15.75;;
49502;SDS011;35409;48.776;9.204;2022-08-19T00:27:21;16.92;;;15.10;;
49502;SDS011;35409;48.776;9.204;2022-08-19T00:29:47;19.20;;;14.48;;
49502;SDS011;35409;48.776;9.204;2022-08-19T00:32:13;16.85;;;15.02;;
49502;SDS011;35409;48.776;9.204;2022-08-19T00:34:38;16.27;;;14.50;;
49502;SDS011;35409;48.776;9.204;2022-08-19T00:37:04;19.63;;;16.17;;
49502;SDS011;35409;48.776;9.204;2022-08-19T00:39:30;18.02;;;15.63;;
49502;SDS011;35409;48.776;9.204;2022-08-19T00:41:55;19.98;;;16.25;;
49502;SDS011;35409;48.776;9.204;2022-08-19T00:44:23;18.23;;;15.52;;
49502;SDS011;35409;48.776;9.204;2022-08-19T00:46:52;18.75;;;14.52;;
49502;SDS011;35409;48.776;9.204;2022-08-19T00:49:20;22.20;;;15.65;;
49502;SDS011;35409;48.776;9.204;2022-08-19T00:51:53;16.63;;;14.45;;
49502;SDS011;35409;48.776;9.204;2022-08-19T00:54:40;15.75;;;13.98;;
49502;SDS011;35409;48.776;9.204;2022-08-19T00:57:08;18.77;;;15.27;;
49502;SDS011;35409;48.776;9.204;2022-08-19T01:02:03;17.55;;;14.88;;
49502;SDS011;35409;48.776;9.204;2022-08-19T01:04:29;19.33;;;16.05;;
49502;SDS011;35409;48.776;9.204;2022-08-19T01:06:55;18.92;;;15.82;;
49502;SDS011;35409;48.776;9.204;2022-08-19T01:09:22;18.20;;;15.10;;
49502;SDS011;35409;48.776;9.204;2022-08-19T01:11:48;18.27;;;16.38;;
49502;SDS011;35409;48.776;9.204;2022-08-19T01:14:14;19.65;;;15.88;;
49502;SDS011;35409;48.776;9.204;2022-08-19T01:16:42;17.58;;;15.77;;
49502;SDS011;35409;48.776;9.204;2022-08-19T01:19:18;18.58;;;15.25;;
49502;SDS011;35409;48.776;9.204;2022-08-19T01:21:57;18.10;;;16.10;;
49502;SDS011;35409;48.776;9.204;2022-08-19T01:24:30;18.48;;;15.88;;
49502;SDS011;35409;48.776;9.204;2022-08-19T01:26:56;20.15;;;15.73;;
49502;SDS011;35409;48.776;9.204;2022-08-19T01:29:23;19.13;;;16.20;;
49502;SDS011;35409;48.776;9.204;2022-08-19T01:31:48;23.95;;;16.70;;
49502;SDS011;35409;48.776;9.204;2022-08-19T01:34:17;19.33;;;16.25;;
49502;SDS011;35409;48.776;9.204;2022-08-19T01:36:44;17.45;;;15.52;;
49502;SDS011;35409;48.776;9.204;2022-08-19T01:39:13;20.30;;;17.23;;
49502;SDS011;35409;48.776;9.204;2022-08-19T01:41:41;19.98;;;15.48;;
49502;SDS011;35409;48.776;9.204;2022-08-19T01:44:07;20.58;;;16.50;;
49502;SDS011;35409;48.776;9.204;2022-08-19T01:46:35;22.15;;;17.45;;
49502;SDS011;35409;48.776;9.204;2022-08-19T01:49:01;19.17;;;16.52;;
49502;SDS011;35409;48.776;9.204;2022-08-19T01:51:28;22.25;;;18.35;;
49502;SDS011;35409;48.776;9.204;2022-08-19T01:53:55;18.65;;;16.67;;
49502;SDS011;35409;48.776;9.204;2022-08-19T01:56:21;22.15;;;17.25;;
49502;SDS011;35409;48.776;9.204;2022-08-19T01:58:51;19.70;;;16.83;;
49502;SDS011;35409;48.776;9.204;2022-08-19T02:01:22;24.40;;;18.00;;
49502;SDS011;35409;48.776;9.204;2022-08-19T02:03:47;20.48;;;18.00;;
49502;SDS011;35409;48.776;9.204;2022-08-19T02:06:13;23.00;;;18.60;;
49502;SDS011;35409;48.776;9.204;2022-08-19T02:08:39;19.60;;;16.75;;
49502;SDS011;35409;48.776;9.204;2022-08-19T02:11:06;18.52;;;16.55;;
49502;SDS011;35409;48.776;9.204;2022-08-19T02:13:33;24.10;;;18.27;;
49502;SDS011;35409;48.776;9.204;2022-08-19T02:15:59;19.92;;;17.77;;
49502;SDS011;35409;48.776;9.204;2022-08-19T02:18:25;21.50;;;17.58;;
49502;SDS011;35409;48.776;9.204;2022-08-19T02:20:51;19.02;;;16.48;;
49502;SDS011;35409;48.776;9.204;2022-08-19T02:23:17;24.45;;;19.27;;
49502;SDS011;35409;48.776;9.204;2022-08-19T02:25:44;23.73;;;19.08;;
49502;SDS011;35409;48.776;9.204;2022-08-19T02:28:13;21.00;;;18.05;;
49502;SDS011;35409;48.776;9.204;2022-08-19T02:30:40;20.45;;;18.30;;
49502;SDS011;35409;48.776;9.204;2022-08-19T02:33:06;24.35;;;19.52;;
49502;SDS011;35409;48.776;9.204;2022-08-19T02:35:32;21.95;;;18.73;;
49502;SDS011;35409;48.776;9.204;2022-08-19T02:37:58;21.45;;;17.55;;
49502;SDS011;35409;48.776;9.204;2022-08-19T02:40:47;28.73;;;21.23;;
49502;SDS011;35409;48.776;9.204;2022-08-19T02:43:15;22.08;;;19.30;;
49502;SDS011;35409;48.776;9.204;2022-08-19T02:45:41;25.05;;;20.67;;
49502;SDS011;35409;48.776;9.204;2022-08-19T02:48:06;26.30;;;20.58;;
49502;SDS011;35409;48.776;9.204;2022-08-19T02:50:33;23.27;;;20.67;;
49502;SDS011;35409;48.776;9.204;2022-08-19T02:53:02;28.90;;;23.40;;
49502;SDS011;35409;48.776;9.204;2022-08-19T02:55:28;24.67;;;20.48;;
49502;SDS011;35409;48.776;9.204;2022-08-19T02:57:54;29.48;;;22.42;;
49502;SDS011;35409;48.776;9.204;2022-08-19T03:00:19;25.45;;;21.58;;
49502;SDS011;35409;48.776;9.204;2022-08-19T03:02:45;28.90;;;22.42;;
49502;SDS011;35409;48.776;9.204;2022-08-19T03:05:11;31.05;;;23.55;;
49502;SDS011;35409;48.776;9.204;2022-08-19T03:07:37;24.05;;;19.27;;
49502;SDS011;35409;48.776;9.204;2022-08-19T03:10:04;26.90;;;22.13;;
49502;SDS011;35409;48.776;9.204;2022-08-19T03:12:30;28.15;;;23.98;;
49502;SDS011;35409;48.776;9.204;2022-08-19T03:14:56;30.55;;;23.23;;
49502;SDS011;35409;48.776;9.204;2022-08-19T03:17:21;30.77;;;23.67;;
49502;SDS011;35409;48.776;9.204;2022-08-19T03:19:47;30.02;;;23.95;;
49502;SDS011;35409;48.776;9.204;2022-08-19T03:22:13;29.45;;;24.55;;
49502;SDS011;35409;48.776;9.204;2022-08-19T03:24:39;25.27;;;22.38;;
49502;SDS011;35409;48.776;9.204;2022-08-19T03:27:05;29.90;;;23.10;;
49502;SDS011;35409;48.776;9.204;2022-08-19T03:29:31;23.95;;;19.80;;
49502;SDS011;35409;48.776;9.204;2022-08-19T03:31:58;32.95;;;24.63;;
49502;SDS011;35409;48.776;9.204;2022-08-19T03:34:28;30.08;;;24.13;;
49502;SDS011;35409;48.776;9.204;2022-08-19T03:36:56;28.55;;;24.92;;
49502;SDS011;35409;48.776;9.204;2022-08-19T03:39:25;32.13;;;24.67;;
49502;SDS011;35409;48.776;9.204;2022-08-19T03:41:51;30.85;;;25.55;;
49502;SDS011;35409;48.776;9.204;2022-08-19T03:44:19;28.63;;;23.20;;
49502;SDS011;35409;48.776;9.204;2022-08-19T03:46:48;30.45;;;24.88;;
49502;SDS011;35409;48.776;9.204;2022-08-19T03:49:16;27.50;;;23.10;;
49502;SDS011;35409;48.776;9.204;2022-08-19T03:51:42;32.95;;;24.70;;
49502;SDS011;35409;48.776;9.204;2022-08-19T03:54:10;27.58;;;22.27;;
49502;SDS011;35409;48.776;9.204;2022-08-19T03:56:38;30.52;;;25.65;;
49502;SDS011;35409;48.776;9.204;2022-08-19T03:59:05;29.48;;;24.98;;
49502;SDS011;35409;48.776;9.204;2022-08-19T04:01:32;32.10;;;26.60;;
49502;SDS011;35409;48.776;9.204;2022-08-19T04:03:59;35.90;;;27.63;;
49502;SDS011;35409;48.776;9.204;2022-08-19T04:06:26;35.65;;;26.20;;
49502;SDS011;35409;48.776;9.204;2022-08-19T04:08:55;26.63;;;23.10;;
49502;SDS011;35409;48.776;9.204;2022-08-19T04:11:27;30.63;;;24.13;;
49502;SDS011;35409;48.776;9.204;2022-08-19T04:13:55;30.70;;;26.85;;
49502;SDS011;35409;48.776;9.204;2022-08-19T04:16:22;31.23;;;25.08;;
49502;SDS011;35409;48.776;9.204;2022-08-19T04:18:50;34.20;;;27.45;;
49502;SDS011;35409;48.776;9.204;2022-08-19T04:21:20;30.27;;;25.23;;
49502;SDS011;35409;48.776;9.204;2022-08-19T04:23:48;32.50;;;27.13;;
49502;SDS011;35409;48.776;9.204;2022-08-19T04:26:14;28.80;;;25.25;;
49502;SDS011;35409;48.776;9.204;2022-08-19T04:28:42;32.08;;;26.58;;
49502;SDS011;35409;48.776;9.204;2022-08-19T04:31:12;38.42;;;30.10;;
49502;SDS011;35409;48.776;9.204;2022-08-19T04:33:40;34.60;;;27.00;;
49502;SDS011;35409;48.776;9.204;2022-08-19T04:36:05;34.55;;;28.20;;
49502;SDS011;35409;48.776;9.204;2022-08-19T04:38:31;32.80;;;25.05;;
49502;SDS011;35409;48.776;9.204;2022-08-19T04:40:57;29.08;;;23.60;;
49502;SDS011;35409;48.776;9.204;2022-08-19T04:43:41;37.50;;;25.80;;
49502;SDS011;35409;48.776;9.204;2022-08-19T04:46:11;33.30;;;27.05;;
49502;SDS011;35409;48.776;9.204;2022-08-19T04:48:37;33.53;;;26.23;;
49502;SDS011;35409;48.776;9.204;2022-08-19T04:51:08;30.55;;;26.35;;
49502;SDS011;35409;48.776;9.204;2022-08-19T04:53:37;31.10;;;25.27;;
49502;SDS011;35409;48.776;9.204;2022-08-19T04:56:05;35.95;;;28.75;;
49502;SDS011;35409;48.776;9.204;2022-08-19T04:58:37;33.20;;;26.83;;
49502;SDS011;35409;48.776;9.204;2022-08-19T05:01:04;33.42;;;27.00;;
49502;SDS011;35409;48.776;9.204;2022-08-19T05:03:30;36.33;;;28.10;;
49502;SDS011;35409;48.776;9.204;2022-08-19T05:05:58;33.00;;;27.20;;
49502;SDS011;35409;48.776;9.204;2022-08-19T05:08:29;35.53;;;26.73;;
49502;SDS011;35409;48.776;9.204;2022-08-19T05:10:55;32.15;;;26.05;;
49502;SDS011;35409;48.776;9.204;2022-08-19T05:13:22;33.95;;;28.42;;
49502;SDS011;35409;48.776;9.204;2022-08-19T05:15:57;31.80;;;26.90;;
49502;SDS011;35409;48.776;9.204;2022-08-19T05:18:24;29.67;;;25.65;;
49502;SDS011;35409;48.776;9.204;2022-08-19T05:21:13;31.92;;;26.88;;
49502;SDS011;35409;48.776;9.204;2022-08-19T05:23:59;31.08;;;25.50;;
49502;SDS011;35409;48.776;9.204;2022-08-19T05:26:25;31.13;;;25.88;;
49502;SDS011;35409;48.776;9.204;2022-08-19T05:28:53;33.05;;;29.05;;
49502;SDS011;35409;48.776;9.204;2022-08-19T05:31:19;34.15;;;27.77;;
49502;SDS011;35409;48.776;9.204;2022-08-19T05:33:45;33.20;;;27.17;;
49502;SDS011;35409;48.776;9.204;2022-08-19T05:36:11;34.15;;;29.33;;
49502;SDS011;35409;48.776;9.204;2022-08-19T05:38:38;32.58;;;28.23;;
49502;SDS011;35409;48.776;9.204;2022-08-19T05:41:07;30.17;;;26.50;;
49502;SDS011;35409;48.776;9.204;2022-08-19T05:43:35;27.85;;;24.83;;
49502;SDS011;35409;48.776;9.204;2022-08-19T05:46:02;35.53;;;28.88;;
49502;SDS011;35409;48.776;9.204;2022-08-19T05:48:30;32.22;;;27.02;;
49502;SDS011;35409;48.776;9.204;2022-08-19T05:51:03;37.10;;;24.83;;
49502;SDS011;35409;48.776;9.204;2022-08-19T05:53:31;34.35;;;26.58;;
49502;SDS011;35409;48.776;9.204;2022-08-19T05:55:58;29.38;;;25.33;;
49502;SDS011;35409;48.776;9.204;2022-08-19T05:58:36;34.08;;;27.92;;
49502;SDS011;35409;48.776;9.204;2022-08-19T06:01:02;33.78;;;28.02;;
49502;SDS011;35409;48.776;9.204;2022-08-19T06:03:32;29.58;;;26.08;;
49502;SDS011;35409;48.776;9.204;2022-08-19T06:05:58;31.73;;;24.55;;
49502;SDS011;35409;48.776;9.204;2022-08-19T06:08:24;29.85;;;24.85;;
49502;SDS011;35409;48.776;9.204;2022-08-19T06:10:51;27.83;;;24.42;;
49502;SDS011;35409;48.776;9.204;2022-08-19T06:13:17;32.00;;;25.30;;
49502;SDS011;35409;48.776;9.204;2022-08-19T06:15:44;34.97;;;27.35;;
49502;SDS011;35409;48.776;9.204;2022-08-19T06:18:12;33.50;;;27.27;;
49502;SDS011;35409;48.776;9.204;2022-08-19T06:20:38;28.00;;;25.02;;
49502;SDS011;35409;48.776;9.204;2022-08-19T06:23:04;30.55;;;25.60;;
49502;SDS011;35409;48.776;9.204;2022-08-19T06:25:30;32.42;;;26.48;;
49502;SDS011;35409;48.776;9.204;2022-08-19T06:27:55;32.53;;;26.77;;
49502;SDS011;35409;48.776;9.204;2022-08-19T06:30:21;31.65;;;24.55;;
49502;SDS011;35409;48.776;9.204;2022-08-19T06:32:47;36.67;;;28.95;;
49502;SDS011;35409;48.776;9.204;2022-08-19T06:35:12;31.80;;;27.30;;
49502;SDS011;35409;48.776;9.204;2022-08-19T06:37:39;33.38;;;27.98;;
49502;SDS011;35409;48.776;9.204;2022-08-19T06:40:06;30.67;;;26.52;;
49502;SDS011;35409;48.776;9.204;2022-08-19T06:42:33;36.00;;;28.20;;
49502;SDS011;35409;48.776;9.204;2022-08-19T06:45:00;33.33;;;27.73;;
49502;SDS011;35409;48.776;9.204;2022-08-19T06:47:28;33.58;;;27.23;;
49502;SDS011;35409;48.776;9.204;2022-08-19T06:49:56;34.80;;;28.48;;
49502;SDS011;35409;48.776;9.204;2022-08-19T06:52:27;35.75;;;30.65;;
49502;SDS011;35409;48.776;9.204;2022-08-19T06:54:54;37.10;;;30.80;;
49502;SDS011;35409;48.776;9.204;2022-08-19T06:57:21;29.73;;;25.60;;
49502;SDS011;35409;48.776;9.204;2022-08-19T06:59:47;29.17;;;26.02;;
49502;SDS011;35409;48.776;9.204;2022-08-19T07:02:13;32.80;;;28.90;;
49502;SDS011;35409;48.776;9.204;2022-08-19T07:04:39;39.20;;;31.02;;
49502;SDS011;35409;48.776;9.204;2022-08-19T07:07:07;31.80;;;26.63;;
49502;SDS011;35409;48.776;9.204;2022-08-19T07:09:35;31.23;;;26.00;;
49502;SDS011;35409;48.776;9.204;2022-08-19T07:12:04;38.17;;;28.88;;
49502;SDS011;35409;48.776;9.204;2022-08-19T07:14:31;37.05;;;27.70;;
49502;SDS011;35409;48.776;9.204;2022-08-19T07:16:57;34.20;;;27.50;;
49502;SDS011;35409;48.776;9.204;2022-08-19T07:19:24;35.95;;;27.83;;
49502;SDS011;35409;48.776;9.204;2022-08-19T07:24:20;30.65;;;25.98;;
49502;SDS011;35409;48.776;9.204;2022-08-19T07:26:48;32.10;;;26.38;;
49502;SDS011;35409;48.776;9.204;2022-08-19T07:29:16;30.35;;;26.00;;
49502;SDS011;35409;48.776;9.204;2022-08-19T07:31:42;31.35;;;25.83;;
49502;SDS011;35409;48.776;9.204;2022-08-19T07:34:08;35.63;;;26.85;;
49502;SDS011;35409;48.776;9.204;2022-08-19T07:36:37;30.15;;;25.80;;
49502;SDS011;35409;48.776;9.204;2022-08-19T07:39:06;31.75;;;25.60;;
49502;SDS011;35409;48.776;9.204;2022-08-19T07:41:34;31.98;;;26.67;;
49502;SDS011;35409;48.776;9.204;2022-08-19T07:44:02;28.80;;;24.88;;
49502;SDS011;35409;48.776;9.204;2022-08-19T07:46:32;28.67;;;23.42;;
49502;SDS011;35409;48.776;9.204;2022-08-19T07:51:25;28.20;;;23.65;;
49502;SDS011;35409;48.776;9.204;2022-08-19T07:53:51;32.45;;;25.50;;
49502;SDS011;35409;48.776;9.204;2022-08-19T07:56:18;36.78;;;25.10;;
49502;SDS011;35409;48.776;9.204;2022-08-19T07:58:46;29.63;;;24.92;;
49502;SDS011;35409;48.776;9.204;2022-08-19T08:01:14;28.17;;;25.17;;
49502;SDS011;35409;48.776;9.204;2022-08-19T08:03:42;28.23;;;24.98;;
49502;SDS011;35409;48.776;9.204;2022-08-19T08:06:27;33.67;;;27.65;;
49502;SDS011;35409;48.776;9.204;2022-08-19T08:09:29;31.00;;;26.70;;
49502;SDS011;35409;48.776;9.204;2022-08-19T08:12:02;34.00;;;28.15;;
49502;SDS011;35409;48.776;9.204;2022-08-19T08:14:32;34.63;;;27.77;;
49502;SDS011;35409;48.776;9.204;2022-08-19T08:17:02;34.53;;;27.52;;
49502;SDS011;35409;48.776;9.204;2022-08-19T08:19:28;33.45;;;28.00;;
49502;SDS011;35409;48.776;9.204;2022-08-19T08:21:58;33.33;;;28.45;;
49502;SDS011;35409;48.776;9.204;2022-08-19T08:24:25;41.65;;;30.38;;
49502;SDS011;35409;48.776;9.204;2022-08-19T08:26:52;34.70;;;29.20;;
49502;SDS011;35409;48.776;9.204;2022-08-19T08:29:18;34.05;;;28.80;;
49502;SDS011;35409;48.776;9.204;2022-08-19T08:31:44;35.50;;;29.00;;
49502;SDS011;35409;48.776;9.204;2022-08-19T08:34:11;38.70;;;29.45;;
49502;SDS011;35409;48.776;9.204;2022-08-19T08:36:39;36.67;;;29.08;;
49502;SDS011;35409;48.776;9.204;2022-08-19T08:39:10;34.25;;;28.55;;
49502;SDS011;35409;48.776;9.204;2022-08-19T08:41:42;34.85;;;29.40;;
49502;SDS011;35409;48.776;9.204;2022-08-19T08:47:02;32.00;;;26.42;;
49502;SDS011;35409;48.776;9.204;2022-08-19T08:52:11;34.17;;;29.00;;
49502;SDS011;35409;48.776;9.204;2022-08-19T08:57:28;38.47;;;28.38;;
49502;SDS011;35409;48.776;9.204;2022-08-19T09:00:21;33.47;;;27.17;;
49502;SDS011;35409;48.776;9.204;2022-08-19T09:02:54;35.47;;;26.00;;
49502;SDS011;35409;48.776;9.204;2022-08-19T09:05:22;34.13;;;27.67;;
49502;SDS011;35409;48.776;9.204;2022-08-19T09:07:57;35.13;;;26.95;;
49502;SDS011;35409;48.776;9.204;2022-08-19T09:10:35;32.60;;;26.00;;
49502;SDS011;35409;48.776;9.204;2022-08-19T09:16:20;31.88;;;25.90;;
49502;SDS011;35409;48.776;9.204;2022-08-19T09:18:52;27.27;;;23.30;;
49502;SDS011;35409;48.776;9.204;2022-08-19T09:21:24;29.25;;;23.58;;
49502;SDS011;35409;48.776;9.204;2022-08-19T09:23:51;31.08;;;23.45;;
49502;SDS011;35409;48.776;9.204;2022-08-19T09:26:18;30.80;;;24.48;;
49502;SDS011;35409;48.776;9.204;2022-08-19T09:28:47;31.90;;;23.98;;
49502;SDS011;35409;48.776;9.204;2022-08-19T09:31:15;25.95;;;23.15;;
49502;SDS011;35409;48.776;9.204;2022-08-19T09:33:43;26.73;;;22.55;;
49502;SDS011;35409;48.776;9.204;2022-08-19T09:36:10;24.10;;;21.60;;
49502;SDS011;35409;48.776;9.204;2022-08-19T09:38:38;27.48;;;23.42;;
49502;SDS011;35409;48.776;9.204;2022-08-19T09:41:06;27.77;;;23.38;;
49502;SDS011;35409;48.776;9.204;2022-08-19T09:46:04;29.58;;;22.90;;
49502;SDS011;35409;48.776;9.204;2022-08-19T09:48:34;29.17;;;21.33;;
49502;SDS011;35409;48.776;9.204;2022-08-19T09:51:02;25.02;;;21.75;;
49502;SDS011;35409;48.776;9.204;2022-08-19T09:53:33;23.77;;;20.52;;
49502;SDS011;35409;48.776;9.204;2022-08-19T09:55:59;23.58;;;20.83;;
49502;SDS011;35409;48.776;9.204;2022-08-19T09:58:25;29.63;;;23.33;;
49502;SDS011;35409;48.776;9.204;2022-08-19T10:00:53;25.15;;;21.85;;
49502;SDS011;35409;48.776;9.204;2022-08-19T10:03:20;25.65;;;19.23;;
49502;SDS011;35409;48.776;9.204;2022-08-19T10:05:46;22.40;;;19.00;;
49502;SDS011;35409;48.776;9.204;2022-08-19T10:08:24;23.77;;;19.10;;
49502;SDS011;35409;48.776;9.204;2022-08-19T10:10:52;24.17;;;20.13;;
49502;SDS011;35409;48.776;9.204;2022-08-19T10:13:20;24.27;;;18.77;;
49502;SDS011;35409;48.776;9.204;2022-08-19T10:15:51;23.48;;;18.15;;
49502;SDS011;35409;48.776;9.204;2022-08-19T10:18:19;24.50;;;18.85;;
49502;SDS011;35409;48.776;9.204;2022-08-19T10:20:46;23.20;;;19.17;;
49502;SDS011;35409;48.776;9.204;2022-08-19T10:23:12;23.85;;;19.80;;
49502;SDS011;35409;48.776;9.204;2022-08-19T10:25:40;20.85;;;18.65;;
49502;SDS011;35409;48.776;9.204;2022-08-19T10:28:06;24.85;;;19.80;;
49502;SDS011;35409;48.776;9.204;2022-08-19T10:30:33;25.10;;;21.40;;
49502;SDS011;35409;48.776;9.204;2022-08-19T10:33:00;22.08;;;19.55;;
49502;SDS011;35409;48.776;9.204;2022-08-19T10:35:26;27.73;;;21.27;;
49502;SDS011;35409;48.776;9.204;2022-08-19T10:37:54;24.05;;;20.20;;
49502;SDS011;35409;48.776;9.204;2022-08-19T10:40:24;26.55;;;20.67;;
49502;SDS011;35409;48.776;9.204;2022-08-19T10:42:51;23.30;;;19.73;;
49502;SDS011;35409;48.776;9.204;2022-08-19T10:45:17;30.10;;;19.50;;
49502;SDS011;35409;48.776;9.204;2022-08-19T10:47:43;20.40;;;18.38;;
49502;SDS011;35409;48.776;9.204;2022-08-19T10:50:09;22.42;;;18.92;;
49502;SDS011;35409;48.776;9.204;2022-08-19T10:52:53;21.85;;;15.65;;
49502;SDS011;35409;48.776;9.204;2022-08-19T10:55:20;22.75;;;17.90;;
49502;SDS011;35409;48.776;9.204;2022-08-19T10:58:16;19.88;;;17.27;;
49502;SDS011;35409;48.776;9.204;2022-08-19T11:00:51;21.35;;;16.70;;
49502;SDS011;35409;48.776;9.204;2022-08-19T11:03:21;18.85;;;15.38;;
49502;SDS011;35409;48.776;9.204;2022-08-19T11:05:56;16.10;;;13.90;;
49502;SDS011;35409;48.776;9.204;2022-08-19T11:08:29;15.68;;;13.93;;
49502;SDS011;35409;48.776;9.204;2022-08-19T11:10:57;16.58;;;14.32;;
49502;SDS011;35409;48.776;9.204;2022-08-19T11:13:29;18.55;;;13.45;;
49502;SDS011;35409;48.776;9.204;2022-08-19T11:16:02;11.98;;;10.77;;
49502;SDS011;35409;48.776;9.204;2022-08-19T11:18:31;14.10;;;12.60;;
49502;SDS011;35409;48.776;9.204;2022-08-19T11:21:05;17.10;;;12.13;;
49502;SDS011;35409;48.776;9.204;2022-08-19T11:23:32;12.85;;;11.13;;
49502;SDS011;35409;48.776;9.204;2022-08-19T11:25:58;14.38;;;12.52;;
49502;SDS011;35409;48.776;9.204;2022-08-19T11:28:26;12.93;;;11.38;;
49502;SDS011;35409;48.776;9.204;2022-08-19T11:30:51;12.90;;;11.38;;
49502;SDS011;35409;48.776;9.204;2022-08-19T11:33:17;14.75;;;10.38;;
49502;SDS011;35409;48.776;9.204;2022-08-19T11:35:43;13.70;;;11.32;;
49502;SDS011;35409;48.776;9.204;2022-08-19T11:38:09;12.35;;;10.48;;
49502;SDS011;35409;48.776;9.204;2022-08-19T11:40:36;12.35;;;10.07;;
49502;SDS011;35409;48.776;9.204;2022-08-19T11:43:02;11.10;;;10.07;;
49502;SDS011;35409;48.776;9.204;2022-08-19T11:45:29;11.75;;;10.00;;
49502;SDS011;35409;48.776;9.204;2022-08-19T11:47:55;12.50;;;10.25;;
49502;SDS011;35409;48.776;9.204;2022-08-19T11:50:22;10.43;;;9.35;;
49502;SDS011;35409;48.776;9.204;2022-08-19T11:52:48;14.77;;;9.40;;
49502;SDS011;35409;48.776;9.204;2022-08-19T11:55:14;11.05;;;9.80;;
49502;SDS011;35409;48.776;9.204;2022-08-19T11:57:40;14.80;;;9.70;;
49502;SDS011;35409;48.776;9.204;2022-08-19T12:00:08;11.55;;;9.55;;
49502;SDS011;35409;48.776;9.204;2022-08-19T12:02:36;17.25;;;9.63;;
49502;SDS011;35409;48.776;9.204;2022-08-19T12:05:02;15.40;;;13.60;;
49502;SDS011;35409;48.776;9.204;2022-08-19T12:07:28;19.75;;;14.20;;
49502;SDS011;35409;48.776;9.204;2022-08-19T12:09:56;18.77;;;14.57;;
49502;SDS011;35409;48.776;9.204;2022-08-19T12:12:22;17.98;;;14.85;;
49502;SDS011;35409;48.776;9.204;2022-08-19T12:14:49;18.70;;;14.77;;
49502;SDS011;35409;48.776;9.204;2022-08-19T12:17:21;22.45;;;14.48;;
49502;SDS011;35409;48.776;9.204;2022-08-19T12:19:48;15.05;;;12.98;;
49502;SDS011;35409;48.776;9.204;2022-08-19T12:22:13;16.17;;;12.70;;
49502;SDS011;35409;48.776;9.204;2022-08-19T12:24:39;13.63;;;11.23;;
49502;SDS011;35409;48.776;9.204;2022-08-19T12:27:04;12.05;;;10.15;;
49502;SDS011;35409;48.776;9.204;2022-08-19T12:29:30;14.98;;;12.15;;
49502;SDS011;35409;48.776;9.204;2022-08-19T12:31:57;16.50;;;12.15;;
49502;SDS011;35409;48.776;9.204;2022-08-19T12:34:26;14.15;;;12.50;;
49502;SDS011;35409;48.776;9.204;2022-08-19T12:36:56;14.73;;;12.45;;
49502;SDS011;35409;48.776;9.204;2022-08-19T12:39:23;14.52;;;12.45;;
49502;SDS011;35409;48.776;9.204;2022-08-19T12:41:49;17.30;;;14.02;;
49502;SDS011;35409;48.776;9.204;2022-08-19T12:44:15;17.50;;;15.13;;
49502;SDS011;35409;48.776;9.204;2022-08-19T12:46:41;16.30;;;14.68;;
49502;SDS011;35409;48.776;9.204;2022-08-19T12:49:07;15.82;;;13.45;;
49502;SDS011;35409;48.776;9.204;2022-08-19T12:51:33;19.35;;;15.50;;
49502;SDS011;35409;48.776;9.204;2022-08-19T12:53:58;18.92;;;16.73;;
49502;SDS011;35409;48.776;9.204;2022-08-19T12:56:24;17.20;;;15.45;;
49502;SDS011;35409;48.776;9.204;2022-08-19T12:58:50;17.42;;;15.00;;
49502;SDS011;35409;48.776;9.204;2022-08-19T13:01:16;17.50;;;14.57;;
49502;SDS011;35409;48.776;9.204;2022-08-19T13:03:42;17.00;;;15.18;;
49502;SDS011;35409;48.776;9.204;2022-08-19T13:06:10;20.13;;;16.13;;
49502;SDS011;35409;48.776;9.204;2022-08-19T13:08:36;16.67;;;14.18;;
49502;SDS011;35409;48.776;9.204;2022-08-19T13:11:10;18.23;;;15.50;;
49502;SDS011;35409;48.776;9.204;2022-08-19T13:13:38;16.17;;;14.48;;
49502;SDS011;35409;48.776;9.204;2022-08-19T13:16:06;19.92;;;16.77;;
49502;SDS011;35409;48.776;9.204;2022-08-19T13:18:32;18.23;;;14.93;;
49502;SDS011;35409;48.776;9.204;2022-08-19T13:21:01;20.33;;;16.08;;
49502;SDS011;35409;48.776;9.204;2022-08-19T13:23:31;21.50;;;19.27;;
49502;SDS011;35409;48.776;9.204;2022-08-19T13:25:58;25.42;;;22.83;;
49502;SDS011;35409;48.776;9.204;2022-08-19T13:28:26;27.95;;;24.23;;
49502;SDS011;35409;48.776;9.204;2022-08-19T13:31:14;31.75;;;27.63;;
49502;SDS011;35409;48.776;9.204;2022-08-19T13:33:59;31.42;;;27.13;;
49502;SDS011;35409;48.776;9.204;2022-08-19T13:36:25;32.42;;;28.83;;
49502;SDS011;35409;48.776;9.204;2022-08-19T13:38:50;36.60;;;30.17;;
49502;SDS011;35409;48.776;9.204;2022-08-19T13:41:16;36.38;;;31.48;;
49502;SDS011;35409;48.776;9.204;2022-08-19T13:43:43;35.03;;;30.42;;
49502;SDS011;35409;48.776;9.204;2022-08-19T13:46:10;36.35;;;29.92;;
49502;SDS011;35409;48.776;9.204;2022-08-19T13:48:39;34.45;;;29.98;;
49502;SDS011;35409;48.776;9.204;2022-08-19T13:51:06;42.45;;;33.58;;
49502;SDS011;35409;48.776;9.204;2022-08-19T13:53:35;42.88;;;32.30;;
49502;SDS011;35409;48.776;9.204;2022-08-19T13:56:11;40.35;;;32.35;;
49502;SDS011;35409;48.776;9.204;2022-08-19T13:58:39;40.58;;;34.22;;
49502;SDS011;35409;48.776;9.204;2022-08-19T14:01:05;45.45;;;37.13;;
49502;SDS011;35409;48.776;9.204;2022-08-19T14:03:32;40.00;;;32.78;;
49502;SDS011;35409;48.776;9.204;2022-08-19T14:05:58;40.78;;;33.55;;
49502;SDS011;35409;48.776;9.204;2022-08-19T14:08:24;40.70;;;34.20;;
49502;SDS011;35409;48.776;9.204;2022-08-19T14:10:50;41.42;;;35.25;;
49502;SDS011;35409;48.776;9.204;2022-08-19T14:13:18;43.55;;;36.15;;
49502;SDS011;35409;48.776;9.204;2022-08-19T14:15:45;36.87;;;32.40;;
49502;SDS011;35409;48.776;9.204;2022-08-19T14:18:12;43.75;;;35.83;;
49502;SDS011;35409;48.776;9.204;2022-08-19T14:20:39;43.78;;;35.75;;
49502;SDS011;35409;48.776;9.204;2022-08-19T14:23:05;39.65;;;34.83;;
49502;SDS011;35409;48.776;9.204;2022-08-19T14:25:31;43.55;;;35.25;;
49502;SDS011;35409;48.776;9.204;2022-08-19T14:27:58;43.33;;;37.28;;
49502;SDS011;35409;48.776;9.204;2022-08-19T14:30:24;45.38;;;37.33;;
49502;SDS011;35409;48.776;9.204;2022-08-19T14:32:59;38.65;;;34.40;;
49502;SDS011;35409;48.776;9.204;2022-08-19T14:35:28;40.95;;;32.33;;
49502;SDS011;35409;48.776;9.204;2022-08-19T14:37:54;45.63;;;34.45;;
49502;SDS011;35409;48.776;9.204;2022-08-19T14:40:21;40.33;;;33.28;;
49502;SDS011;35409;48.776;9.204;2022-08-19T14:42:54;38.10;;;33.10;;
49502;SDS011;35409;48.776;9.204;2022-08-19T14:45:24;35.92;;;30.67;;
49502;SDS011;35409;48.776;9.204;2022-08-19T14:47:51;32.05;;;27.63;;